x

Upper Potomac, Md (44061) Weather Station

12:20pm - Fri 22nd May 2015 All times are EDT. -4 hours from GMT.

  • Wind
    13mph, 22mph gusts
  • Air Temp 67°f
  • Sea Pressure 1019.2mb
  • Upper Potomac, Md
  • Upper Potomac, Md

More Historic Weather Station data

Upgrade to MSW Pro to gain access to the past 30 days of data for over 8000 Wavebouys and Weather Stations around the globe.

Join Pro

Comparision Forecast

View Surf forecast
   
Fri 05/22 12:20pm 13 22 mph 1019.2mb - 67f
12:10pm 16 20 mph 1019.2mb - 67f
12:00pm 13 20 mph 1019.1mb 72f 67f
11:50am 11 13 mph 1019.2mb - 66f
11:40am 9 11 mph 1019.2mb - 66f
11:30am 11 20 mph 1019.3mb - 65f
11:20am 11 22 mph 1019.2mb - 65f
11:10am 9 18 mph 1019.1mb - 65f
11:00am 9 16 mph 1019mb 72f 65f
10:50am 11 16 mph 1019mb - 64f
10:40am 11 18 mph 1018.9mb - 64f
10:30am 13 18 mph 1018.9mb - 64f
10:20am 9 13 mph 1018.9mb - 63f
10:10am 9 13 mph 1018.8mb - 63f
10:00am 9 13 mph 1018.8mb 72f 62f
9:50am 9 16 mph 1018.7mb - 62f
9:40am 11 18 mph 1018.7mb - 61f
9:20am 9 16 mph 1018.7mb - 60f
9:10am 9 13 mph 1018.6mb - 59f
9:00am 11 18 mph 1018.5mb 73f 59f
8:50am 7 11 mph 1018.5mb - 59f
8:40am 4 9 mph 1018.4mb - 58f
8:30am 7 13 mph 1018.3mb - 57f
8:20am 4 9 mph 1018.1mb - 56f
8:10am 7 9 mph 1018.1mb - 56f
8:00am 7 9 mph 1018mb 72f 55f
7:50am 7 9 mph 1017.9mb - 55f
7:40am 7 9 mph 1017.8mb - 55f
7:30am 4 7 mph 1017.7mb - 55f
7:20am 4 7 mph 1017.6mb - 55f
7:10am 4 7 mph 1017.5mb - 54f
7:00am 4 7 mph 1017.4mb 72f 54f
6:50am 4 9 mph 1017.3mb - 54f
6:40am 4 9 mph 1017.1mb - 54f
6:30am 2 7 mph 1017.1mb - 54f
6:20am 2 7 mph 1017mb - 54f
6:10am 2 7 mph 1016.9mb - 54f
6:00am 2 4 mph 1016.8mb 72f 54f
5:50am 2 7 mph 1016.7mb - 54f
5:40am 2 7 mph 1016.6mb - 54f
5:30am 2 7 mph 1016.5mb - 54f
5:20am 4 7 mph 1016.3mb - 54f
5:10am 4 7 mph 1016.1mb - 54f
5:00am 2 7 mph 1016.1mb 73f 54f
4:50am 2 7 mph 1016mb - 54f
4:40am 4 9 mph 1015.8mb - 54f
4:30am 4 7 mph 1015.7mb - 54f
4:20am 4 9 mph 1015.5mb - 54f
4:10am 7 11 mph 1015.3mb - 55f
4:00am 4 9 mph 1015.2mb 73f 55f
3:50am 7 11 mph 1015mb - 55f
3:40am 4 11 mph 1014.9mb - 55f
3:30am 4 9 mph 1014.8mb - 55f
3:20am 7 13 mph 1014.6mb - 55f
3:10am 9 11 mph 1014.5mb - 55f
3:00am 9 13 mph 1014.4mb 73f 55f
2:50am 7 9 mph 1014.4mb - 55f
2:40am 7 13 mph 1014.3mb - 55f
2:30am 7 13 mph 1014.3mb - 55f
2:20am 7 11 mph 1014.4mb - 55f
2:10am 7 13 mph 1014.4mb - 55f
2:00am 7 11 mph 1014.4mb 72f 55f
1:50am 7 11 mph 1014.3mb - 55f
1:40am 9 13 mph 1014.3mb - 55f
1:30am 9 13 mph 1014.3mb - 55f
1:20am 9 13 mph 1014.2mb - 55f
1:10am 7 11 mph 1014.2mb - 54f
1:00am 7 11 mph 1014.1mb 72f 54f
12:50am 4 7 mph 1014.1mb - 54f
12:40am 4 9 mph 1014.1mb - 54f
12:30am 4 7 mph 1014.1mb - 53f
12:20am 4 7 mph 1014mb - 54f
12:10am 4 7 mph 1013.8mb - 54f
12:00am 4 7 mph 1013.9mb 72f 54f
Thu 05/21 11:50pm 4 7 mph 1013.8mb - 54f
11:40pm 4 7 mph 1013.7mb - 54f
11:30pm 4 7 mph 1013.8mb - 54f
11:20pm 4 7 mph 1013.9mb - 54f
11:10pm 7 9 mph 1013.9mb - 53f
11:00pm 4 7 mph 1013.9mb 72f 53f
10:50pm 4 7 mph 1013.8mb - 53f
10:40pm 4 7 mph 1013.8mb - 53f
10:30pm 4 7 mph 1013.9mb - 53f
10:20pm 4 7 mph 1013.8mb - 53f
10:10pm 4 7 mph 1013.8mb - 53f
10:00pm 4 9 mph 1013.8mb 73f 53f
9:50pm 7
mph
1013.6mb - 54f
9:40pm 7 9 mph 1013.5mb - 54f
9:30pm 7 9 mph 1013.4mb - 54f
9:20pm 7 9 mph 1013.3mb - 54f
9:10pm 7 9 mph 1013.3mb - 54f
9:00pm 4 7 mph 1013.3mb 73f 55f
8:50pm 4 7 mph 1013.3mb - 55f
8:40pm 4 7 mph 1013.5mb - 54f
8:30pm 7 9 mph 1013.5mb - 54f
8:20pm 7 9 mph 1013.5mb - 54f
8:10pm 7 9 mph 1013.6mb - 54f
8:00pm 7 11 mph 1013.7mb 74f 54f
7:50pm 7 9 mph 1013.7mb - 54f
7:40pm 7 9 mph 1013.8mb - 54f
7:30pm 7 9 mph 1013.7mb - 54f
7:20pm 7 9 mph 1013.5mb - 54f
7:10pm 7 9 mph 1013.4mb - 54f
7:00pm 7 9 mph 1013.4mb 74f 53f
6:50pm 7 9 mph 1013.4mb - 53f
6:40pm 7 11 mph 1013.3mb - 53f
6:20pm 7 11 mph 1013mb - 53f
6:10pm 7 9 mph 1013mb - 54f
6:00pm 7 11 mph 1013mb 74f 54f
5:50pm 7 11 mph 1013mb - 54f
5:40pm 7 11 mph 1012.9mb - 54f
5:30pm 7 9 mph 1013mb - 54f
5:20pm 7 9 mph 1012.9mb - 54f
5:10pm 7 9 mph 1012.9mb - 54f
5:00pm 7 9 mph 1012.8mb 74f 54f
4:50pm 7 9 mph 1012.8mb - 53f
4:40pm 7 9 mph 1012.9mb - 53f
4:30pm 7 11 mph 1013.1mb - 54f
4:20pm 7 11 mph 1013.2mb - 53f
4:10pm 7 11 mph 1013.2mb - 53f
4:00pm 9 13 mph 1013.1mb 74f 53f
3:50pm 9 11 mph 1013.5mb - 53f
3:40pm 9 11 mph 1013.9mb - 52f
3:30pm 7 11 mph 1013.8mb - 52f
3:20pm 7 9 mph 1013.8mb - 52f
3:10pm 7 9 mph 1013.8mb - 52f
3:00pm 7 9 mph 1013.9mb 74f 52f
2:50pm 7 11 mph 1014.1mb - 52f
2:40pm 9 11 mph 1014.2mb - 52f
2:30pm 9 16 mph 1014.4mb - 51f
2:20pm 9 13 mph 1014.2mb - 51f
2:10pm 9 11 mph 1014.4mb - 51f
2:00pm 9 11 mph 1014.6mb 73f 51f
1:50pm 9 11 mph 1014.6mb - 51f
1:40pm 9 13 mph 1014.8mb - 51f
1:30pm 9 16 mph 1015mb - 52f
1:20pm 9 13 mph 1015.2mb - 52f
1:10pm 9 11 mph 1015.2mb - 52f
1:00pm 9 13 mph 1015.2mb 74f 52f
12:50pm 9 13 mph 1015.2mb - 52f
12:40pm 11 13 mph 1015.4mb - 52f
12:30pm 9 16 mph 1015.5mb - 52f
12:20pm 9 11 mph 1015.7mb - 52f
12:10pm 11 13 mph 1015.8mb - 52f
12:00pm 11 13 mph 1016mb 74f 52f
11:50am 11 13 mph 1016mb - 53f
11:40am 11 13 mph 1016mb - 53f
11:30am 9 13 mph 1015.9mb - 54f
11:20am 7 11 mph 1016mb - 54f
11:10am 9 13 mph 1016.1mb - 54f
11:00am 9 11 mph 1016.1mb 74f 54f
10:50am 9 11 mph 1016.1mb - 54f
10:40am 7 11 mph 1016.2mb - 54f
10:30am 7 9 mph 1016.2mb - 54f
10:20am 9 11 mph 1016.1mb - 54f
10:10am 9 11 mph 1016.2mb - 54f
10:00am 11 16 mph 1016.1mb 74f 55f
9:50am 13 16 mph 1016mb - 56f
9:40am 9 13 mph 1015.9mb - 56f
9:30am 9 13 mph 1015.9mb - 57f
9:20am 7 9 mph 1015.7mb - 58f
9:10am 4 7 mph 1015.6mb - 58f
9:00am 4 9 mph 1015.3mb 74f 58f
8:50am 7 9 mph 1015.1mb - 58f
8:40am 7 11 mph 1015.1mb - 59f
8:30am 7 11 mph 1015mb - 59f
8:20am 7 9 mph 1015.1mb - 59f
8:10am 7 9 mph 1015mb - 60f
8:00am 7 11 mph 1014.9mb 74f 60f
7:50am 7 11 mph 1014.8mb - 60f
7:40am 7 11 mph 1014.8mb - 60f
7:30am 9 13 mph 1014.7mb - 60f
7:20am 7 11 mph 1014.7mb - 60f
7:10am 9 11 mph 1014.7mb - 60f
7:00am 9 11 mph 1014.8mb 74f 60f
6:50am 7 9 mph 1014.9mb - 60f
6:40am 7 9 mph 1015.1mb - 60f
6:30am 7 9 mph 1015.2mb - 60f
6:20am 7 9 mph 1015.3mb - 60f
6:10am 7 9 mph 1015.2mb - 60f
6:00am 4 9 mph 1015.2mb 75f 60f
5:50am 4 9 mph 1015.3mb - 60f
5:40am 4 9 mph 1015.1mb - 60f
5:30am 7 11 mph 1014.8mb - 61f
5:20am 4 9 mph 1014.8mb - 61f
5:10am 7 9 mph 1014.9mb - 61f
5:00am 4 7 mph 1015.4mb 75f 61f
4:50am 2 4 mph 1015.4mb - 61f
4:40am 4 7 mph 1015.3mb - 61f
4:30am 4 7 mph 1015.3mb - 61f
4:20am 4 7 mph 1015.1mb - 61f
4:10am 4 9 mph 1015.3mb - 61f
4:00am 7 9 mph 1015.4mb 75f 61f
3:50am 4 7 mph 1015.3mb - 61f
3:40am 4 7 mph 1015.4mb - 61f
3:30am 4 9 mph 1015.3mb - 61f
3:20am 4 7 mph 1015.4mb - 61f
3:10am 7 9 mph 1015.4mb - 61f
3:00am 4 7 mph 1015.4mb 75f 61f
2:50am 4 7 mph 1015.5mb - 61f
2:40am 4 9 mph 1015.4mb - 61f
2:30am 7 9 mph 1015.4mb - 61f
2:20am 4 7 mph 1015.4mb - 61f
2:10am 4 7 mph 1015.3mb - 61f
2:00am 4 7 mph 1015.3mb 75f 61f
1:50am 4 7 mph 1015.4mb - 61f
1:40am 4 7 mph 1015.5mb - 61f
1:30am 7 9 mph 1015.5mb - 61f
1:20am 4 7 mph 1015.4mb - 61f
1:10am 7 9 mph 1015.4mb - 61f
1:00am 7 9 mph 1015.5mb 75f 62f
12:50am 7 11 mph 1015.6mb - 62f
12:40am 9 11 mph 1015.5mb - 62f
12:30am 7 9 mph 1015.6mb - 62f
12:20am 7 9 mph 1015.6mb - 62f
12:10am 7 9 mph 1015.6mb - 62f
12:00am 7 11 mph 1015.8mb 75f 63f
Wed 05/20 11:50pm 7 11 mph 1015.7mb - 63f
11:40pm 7 11 mph 1015.6mb - 63f
11:30pm 9 13 mph 1015.6mb - 64f
11:20pm 11 13 mph 1015.5mb - 64f
11:10pm 11 13 mph 1015.7mb - 65f
11:00pm 11 13 mph 1015.7mb 74f 65f
10:50pm 11 13 mph 1015.7mb - 65f
10:40pm 11 16 mph 1015.8mb - 66f
10:30pm 11 16 mph 1015.7mb - 66f
10:20pm 9 13 mph 1015.8mb - 67f
10:10pm 9 13 mph 1015.7mb - 67f
10:00pm 9 13 mph 1015.7mb 75f 67f
9:50pm 9 13 mph 1015.6mb - 67f
9:40pm 9 16 mph 1015.6mb - 67f
9:30pm 7 9 mph 1015.6mb - 67f
9:20pm 7 11 mph 1015.5mb - 67f
9:10pm 9 13 mph 1015.4mb - 67f
9:00pm 9 13 mph 1015.4mb 76f 67f
8:50pm 7 11 mph 1015.3mb - 67f
8:40pm 9 13 mph 1015.2mb - 67f
8:30pm 11 16 mph 1015.2mb - 67f
8:20pm 11 16 mph 1015.2mb - 68f
8:10pm 11 13 mph 1015mb - 68f
8:00pm 11 16 mph 1014.9mb 76f 68f
7:50pm 11 16 mph 1014.8mb - 68f
7:40pm 13 18 mph 1014.7mb - 69f
7:30pm 11 18 mph 1014.6mb - 69f
7:20pm 11 13 mph 1014.6mb - 69f
7:10pm 11 18 mph 1014.6mb - 69f
7:00pm 11 18 mph 1014.7mb 76f 69f
6:50pm 11 16 mph 1014.7mb - 69f
6:40pm 9 16 mph 1014.6mb - 70f
6:30pm 11 20 mph 1014.6mb - 70f
6:20pm 11 16 mph 1014.5mb - 70f
6:10pm 11 16 mph 1014.4mb - 70f
6:00pm 13 20 mph 1014.4mb 76f 70f
5:50pm 13 20 mph 1014.4mb - 70f
5:40pm 11 20 mph 1014.3mb - 70f
5:30pm 11 20 mph 1014.2mb - 70f
5:20pm 9 18 mph 1014.3mb - 70f
5:10pm 9 13 mph 1014.3mb - 70f
5:00pm 11 20 mph 1014.3mb 76f 70f
4:50pm 11 18 mph 1014.4mb - 70f
4:40pm 11 20 mph 1014.4mb - 69f
4:30pm 9 16 mph 1014.5mb - 70f
4:20pm 7 18 mph 1014.5mb - 70f
4:10pm 13 20 mph 1014.4mb - 69f
4:00pm 13 22 mph 1014.4mb 76f 69f
3:50pm 13 22 mph 1014.4mb - 69f
3:40pm 11 18 mph 1014.4mb - 69f
3:30pm 11 18 mph 1014.4mb - 69f
3:20pm 11 18 mph 1014.4mb - 69f
3:10pm 9 18 mph 1014.5mb - 69f
3:00pm 11 18 mph 1014.6mb 76f 69f
2:50pm 13 20 mph 1014.6mb - 69f
2:40pm 11 18 mph 1014.6mb - 68f
2:30pm 11 18 mph 1014.6mb - 68f
2:20pm 9 18 mph 1014.6mb - 68f
2:10pm 11 20 mph 1014.6mb - 68f
2:00pm 11 20 mph 1014.8mb 76f 67f
1:50pm 11 20 mph 1014.9mb - 67f
1:40pm 9 20 mph 1014.9mb - 67f
1:30pm 9 18 mph 1015mb - 67f
1:20pm 9 16 mph 1015.1mb - 67f
1:10pm 9 20 mph 1015.2mb - 66f
1:00pm 13 22 mph 1015.1mb 76f 66f
12:50pm 11 20 mph 1014.9mb - 66f
12:40pm 11 18 mph 1015.1mb - 65f
12:30pm 11 18 mph 1015.2mb - 65f
12:20pm 9 16 mph 1015.3mb - 65f
12:10pm 13 22 mph 1015.3mb - 65f
12:00pm 13 22 mph 1015.5mb 76f 65f
11:50am 11 16 mph 1015.4mb - 64f
11:30am 13 20 mph 1015.5mb - 64f
11:20am 13 22 mph 1015.4mb - 64f
11:10am 13 22 mph 1015.2mb - 64f
11:00am 16 22 mph 1015.2mb 76f 63f
10:50am 16 27 mph 1015.3mb - 63f
10:40am 13 25 mph 1015.3mb - 63f
10:30am 11 18 mph 1015.3mb - 63f
10:20am 13 22 mph 1015.2mb - 63f
10:10am 11 18 mph 1015.3mb - 63f
10:00am 13 20 mph 1015.3mb 75f 62f
9:50am 13 20 mph 1015.3mb - 62f
9:40am 11 18 mph 1015.4mb - 62f
9:30am 11 18 mph 1015.4mb - 62f
9:20am 11 20 mph 1015.5mb - 62f
9:10am 13 20 mph 1015.5mb - 62f
9:00am 11 18 mph 1015.4mb 76f 62f
8:50am 11 18 mph 1015.4mb - 62f
8:40am 11 16 mph 1015.4mb - 62f
8:30am 11 20 mph 1015.3mb - 62f
8:20am 13 22 mph 1015.2mb - 62f
8:10am 16 25 mph 1015.1mb - 62f
8:00am 11 18 mph 1015mb 76f 62f
7:50am 13 20 mph 1014.9mb - 62f
7:40am 11 20 mph 1014.9mb - 62f
7:30am 13 20 mph 1014.8mb - 62f
7:20am 13 20 mph 1014.6mb - 62f
7:10am 11 18 mph 1014.6mb - 62f
7:00am 13 20 mph 1014.5mb 75f 62f
6:50am 13 20 mph 1014.5mb - 62f
6:40am 13 18 mph 1014.4mb - 62f
6:30am 11 18 mph 1014.2mb - 62f
6:20am 13 22 mph 1014.1mb - 62f
6:10am 13 18 mph 1014mb - 62f
6:00am 11 18 mph 1014mb 77f 63f
5:50am 11 20 mph 1014mb - 63f
5:40am 11 20 mph 1014mb - 63f
5:30am 11 18 mph 1013.9mb - 64f
5:20am 11 16 mph 1013.8mb - 64f
5:10am 13 22 mph 1013.6mb - 64f
5:00am 11 20 mph 1013.6mb 77f 65f
4:50am 13 20 mph 1013.4mb - 65f
4:40am 13 22 mph 1013.4mb - 65f
4:30am 16 22 mph 1013.4mb - 66f
4:20am 18 27 mph 1013.3mb - 66f
4:10am 18 27 mph 1013.3mb - 67f
4:00am 16 25 mph 1013.1mb 77f 68f
3:50am 16 25 mph 1012.8mb - 69f
3:40am 16 22 mph 1012.6mb - 69f
3:30am 16 22 mph 1012.3mb - 70f
3:20am 13 20 mph 1012.2mb - 71f
3:10am 13 25 mph 1012mb - 71f
3:00am 16 22 mph 1011.8mb 77f 72f
2:50am 13 18 mph 1012mb - 72f
2:40am 11 18 mph 1012.1mb - 72f
2:30am 9 13 mph 1012.3mb - 73f
2:20am 9 16 mph 1012.1mb - 73f
2:10am 9 11 mph 1012mb - 74f
2:00am 7 11 mph 1012mb 77f 74f
1:50am 7 11 mph 1011.9mb - 74f
1:40am 9 11 mph 1011.8mb - 75f
1:30am 7 11 mph 1011.7mb - 75f
1:20am 7 11 mph 1011.5mb - 76f
1:10am 4 7 mph 1011.5mb - 76f
1:00am 9 13 mph 1011.3mb 77f 76f
12:50am 9 16 mph 1011.4mb - 77f
12:40am 7 11 mph 1011.4mb - 78f
12:30am 4 7 mph 1011.4mb - 78f
12:20am 4 9 mph 1011.3mb - 79f
12:10am 7 11 mph 1011.3mb - 79f
12:00am 2 4 mph 1011.3mb 77f 79f
Tue 05/19 11:50pm 4 11 mph 1011.3mb - 80f
11:40pm 7 13 mph 1011.2mb - 80f
11:30pm 4 9 mph 1011.2mb - 80f
11:20pm 2 7 mph 1011.2mb - 79f
11:10pm 4 7 mph 1011.2mb - 79f
11:00pm 4 7 mph 1011.2mb 77f 80f
10:50pm 4 7 mph 1011.3mb - 81f
10:40pm 4 7 mph 1011.2mb - 81f
10:30pm 4 7 mph 1011.1mb - 81f
10:20pm 4
mph
1011.1mb - 81f
10:10pm 2 4 mph 1011.1mb - 81f
10:00pm 2 4 mph 1011mb 77f 80f
9:50pm  -  2 mph 1011mb - 79f
9:40pm 2 4 mph 1010.9mb - 79f
9:30pm 2 4 mph 1010.8mb - 79f
9:20pm 2
mph
1010.7mb - 80f
9:10pm 4
mph
1010.5mb - 80f
9:00pm 4
mph
1010.4mb 77f 79f
8:50pm 4
mph
1010.3mb - 80f
8:40pm 4
mph
1010.2mb - 80f
8:30pm 4
mph
1010.1mb - 81f
8:20pm 4 7 mph 1010mb - 82f
8:10pm 4 7 mph 1010mb - 82f
8:00pm 4 7 mph 1009.9mb 77f 85f
7:50pm 2 4 mph 1009.8mb - 87f
7:40pm 2 4 mph 1009.6mb - 87f
7:30pm 4 9 mph 1009.5mb - 87f
7:20pm 7 9 mph 1009.5mb - 87f
7:10pm 4 9 mph 1009.4mb - 87f
7:00pm 4 9 mph 1009.4mb 77f 87f
6:50pm 4 7 mph 1009.5mb - 87f
6:40pm 7 13 mph 1009.5mb - 87f
6:30pm 7 11 mph 1009.5mb - 87f
6:20pm 7 11 mph 1009.5mb - 87f
6:10pm 9 13 mph 1009.5mb - 87f
6:00pm 9 13 mph 1009.6mb 78f 87f
5:50pm 4 13 mph 1009.7mb - 87f
5:40pm 4 9 mph 1009.8mb - 87f
5:30pm 4 11 mph 1009.9mb - 87f
5:20pm 2 9 mph 1010.1mb - 87f
5:10pm 7 13 mph 1010.2mb - 86f
5:00pm 7 13 mph 1010.3mb 78f 86f
4:50pm 7 11 mph 1010.4mb - 86f
4:40pm 9 13 mph 1010.4mb - 86f
4:30pm 9 16 mph 1010.4mb - 86f
4:20pm 7 11 mph 1010.5mb - 85f
4:10pm 7 16 mph 1010.6mb - 86f
4:00pm 9 11 mph 1010.9mb 77f 85f
3:50pm 9 13 mph 1011.1mb - 85f
3:40pm 9 16 mph 1011.3mb - 85f
3:30pm 9 18 mph 1011.5mb - 85f
3:20pm 11 18 mph 1011.5mb - 85f
3:10pm 7 11 mph 1011.7mb - 85f
3:00pm 7 11 mph 1011.8mb 77f 84f
2:50pm 9 13 mph 1012mb - 84f
2:40pm 7 11 mph 1012.1mb - 83f
2:30pm 9 13 mph 1012.1mb - 83f
2:20pm 9 11 mph 1012.2mb - 83f
2:10pm 9 13 mph 1012.3mb - 83f
2:00pm 9 13 mph 1012.4mb 77f 83f
1:50pm 9 13 mph 1012.4mb - 83f
1:40pm 7 13 mph 1012.5mb - 83f
1:30pm 7 13 mph 1012.6mb - 82f
1:20pm 11 18 mph 1012.7mb - 82f
1:10pm 7 13 mph 1012.8mb - 82f
1:00pm 7 11 mph 1012.9mb 77f 81f
12:50pm 9 11 mph 1013mb - 81f
12:40pm 9 16 mph 1013.1mb - 81f
12:30pm 7 13 mph 1013.1mb - 80f
12:20pm 7 11 mph 1013.2mb - 80f
12:10pm 4 7 mph 1013.4mb - 80f
12:00pm 7 13 mph 1013.5mb 77f 80f
11:50am 4 9 mph 1013.5mb - 79f
11:40am 2 4 mph 1013.5mb - 79f
11:30am 4 7 mph 1013.6mb - 79f
11:20am 7 9 mph 1013.6mb - 79f
11:10am 7 11 mph 1013.6mb - 78f
11:00am 4 7 mph 1013.7mb 76f 78f
10:50am 7 11 mph 1013.8mb - 78f
10:40am 7 11 mph 1013.8mb - 77f
10:30am 9 13 mph 1013.9mb - 77f
10:20am 9 11 mph 1013.9mb - 77f
10:10am 7 11 mph 1013.9mb - 77f
10:00am 7 11 mph 1013.9mb 76f 76f
9:50am 9 11 mph 1014mb - 76f
9:40am 4 7 mph 1014mb - 75f
9:30am 4 7 mph 1014mb - 74f
9:20am 4 7 mph 1014mb - 74f
9:10am 7 9 mph 1014mb - 73f
9:00am 7
mph
1014.1mb 76f 73f
8:50am 4 7 mph 1014.1mb - 73f
8:40am 4
mph
1014mb - 73f
8:30am 4
mph
1013.9mb - 73f
8:20am 2 4 mph 1013.9mb - 73f
8:10am  -  mph 1014mb - 73f
8:00am  -  2 mph 1014mb 76f 73f
7:50am 2 4 mph 1014mb - 73f
7:40am 2 4 mph 1014mb - 73f
7:30am 2 4 mph 1014mb - 73f
7:20am  -  2 mph 1014mb - 73f
7:10am 2 4 mph 1014.1mb - 72f
7:00am 2 4 mph 1014.2mb 76f 72f
6:50am 2 4 mph 1014.2mb - 72f
6:40am 2 4 mph 1014.2mb - 71f
6:30am 2 4 mph 1014.1mb - 71f
6:20am 2 4 mph 1014mb - 71f
6:10am 2 7 mph 1014mb - 71f
6:00am  -  mph 1014.1mb 76f 71f
5:50am  -  mph 1014mb - 71f
5:40am  -  2 mph 1014mb - 71f
5:30am 2 4 mph 1014.1mb - 71f
5:20am 2 4 mph 1014.1mb - 71f
5:10am 2 4 mph 1014.1mb - 71f
5:00am 2
mph
1014.2mb 76f 71f
4:50am 2 4 mph 1014.2mb - 71f
4:40am 4 7 mph 1014.2mb - 71f
4:30am 4 7 mph 1014.3mb - 71f
4:20am 4 7 mph 1014.4mb - 71f
4:10am 4 7 mph 1014.4mb - 71f
4:00am 2 4 mph 1014.5mb 76f 71f
3:50am 2 4 mph 1014.7mb - 71f
3:40am  -  2 mph 1014.8mb - 71f
3:30am 2 4 mph 1014.8mb - 71f
3:20am  -  2 mph 1014.7mb - 71f
3:10am 2 4 mph 1014.6mb - 71f
3:00am 2 4 mph 1014.8mb 76f 71f
2:50am 2
mph
1014.8mb - 71f
2:40am 2 4 mph 1014.9mb - 71f
2:30am 2 4 mph 1015.1mb - 71f
2:20am 2 4 mph 1015.2mb - 71f
2:10am 4 7 mph 1015.3mb - 71f
2:00am 4 7 mph 1015.4mb 76f 71f
1:50am 4 7 mph 1015.6mb - 71f
1:40am 4 7 mph 1015.6mb - 71f
1:30am 4 7 mph 1015.7mb - 71f
1:20am 4 7 mph 1015.9mb - 71f
1:10am 7 9 mph 1016mb - 71f
1:00am 7 11 mph 1016mb 76f 71f
12:50am 7 25 mph 1016.2mb - 71f
12:40am 7 9 mph 1016.3mb - 71f
12:30am 7 9 mph 1016.6mb - 71f
12:20am 7 11 mph 1016.8mb - 71f
12:10am 9 11 mph 1016.9mb - 71f
12:00am 9 11 mph 1016.9mb 76f 71f
Mon 05/18 11:50pm 11 16 mph 1016.8mb - 71f
11:40pm 11 18 mph 1016.7mb - 72f
11:30pm 13 25 mph 1016.6mb - 74f
11:20pm 9 13 mph 1016.1mb - 76f
11:10pm 7
mph
1015.8mb - 76f
11:00pm 7 9 mph 1015.8mb 76f 76f
10:50pm 7
mph
1015.7mb - 76f
10:40pm 4 7 mph 1015.7mb - 76f
10:30pm 4 9 mph 1015.8mb - 76f
10:20pm 4 7 mph 1015.9mb - 76f
10:10pm 7 11 mph 1015.9mb - 76f
10:00pm 9 13 mph 1016mb 76f 77f
9:50pm 4 7 mph 1016.1mb - 78f
9:40pm 7 9 mph 1016mb - 78f
9:30pm 4 9 mph 1015.6mb - 78f
9:20pm 4 7 mph 1015.4mb - 79f
9:10pm 7 9 mph 1015.7mb - 79f
9:00pm 9 11 mph 1015.7mb 76f 79f
8:50pm 9 11 mph 1015.5mb - 80f
8:40pm 7 13 mph 1015.7mb - 79f
8:30pm 4 7 mph 1015.6mb - 78f
8:20pm 2 4 mph 1015.7mb - 79f
8:10pm  -  2 mph 1015.7mb - 80f
8:00pm  -  mph 1015.6mb 76f 80f
7:50pm  -  2 mph 1015.4mb - 80f
7:40pm  -  2 mph 1015.3mb - 81f
7:30pm 2
mph
1015.3mb - 82f
7:20pm  -  2 mph 1015.2mb - 82f
7:10pm  -  2 mph 1015.1mb - 82f
7:00pm  -  2 mph 1015mb 76f 82f
6:50pm 2
mph
1015mb - 81f
6:40pm 2
mph
1015mb - 81f
6:10pm 4
mph
1015.4mb - 81f
6:00pm 2 7 mph 1015.5mb 77f 80f
5:50pm 7
mph
1015.7mb - 80f
5:40pm 7
mph
1015.9mb - 80f
5:30pm 7 9 mph 1015.9mb - 79f
5:20pm 2 7 mph 1016.1mb - 78f
5:10pm 11 27 mph 1016.2mb - 78f